Time;durP1;ratioP1;P1;durP2;ratioP2;P2;SDS_P1;SDS_P2;PMS_P1;PMS_P2;Temp;Humidity;BMP_temperature;BMP_pressure;BME280_temperature;BME280_humidity;BME280_pressure;Samples;Min_cycle;Max_cycle;Signal;HPM_P1;HPM_P2
2022/05/08 00:00:27;;;;;;;20.27;12.67;;;;;;;;;;5029509;28;20211;-76
2022/05/08 00:02:55;;;;;;;22.60;13.30;;;;;;;;;;5027327;28;20316;-76
2022/05/08 00:05:22;;;;;;;20.93;12.70;;;;;;;;;;5023999;28;20207;-75
2022/05/08 00:07:49;;;;;;;22.90;13.70;;;;;;;;;;5027708;28;20227;-76
2022/05/08 00:10:17;;;;;;;24.13;14.60;;;;;;;;;;5026105;28;20204;-76
2022/05/08 00:12:44;;;;;;;22.37;14.80;;;;;;;;;;5026992;28;20300;-76
2022/05/08 00:15:12;;;;;;;23.90;14.83;;;;;;;;;;5029598;28;20227;-74
2022/05/08 00:17:40;;;;;;;26.70;15.57;;;;;;;;;;5030522;28;20242;-75
2022/05/08 00:20:09;;;;;;;23.73;14.20;;;;;;;;;;5027166;28;20216;-75
2022/05/08 00:22:36;;;;;;;29.30;17.33;;;;;;;;;;5031780;28;20239;-75
2022/05/08 00:25:03;;;;;;;28.17;15.10;;;;;;;;;;5029102;28;20277;-76
2022/05/08 00:27:30;;;;;;;31.30;17.40;;;;;;;;;;5026949;28;20227;-76
2022/05/08 00:29:57;;;;;;;29.43;17.30;;;;;;;;;;5026127;28;20208;-78
2022/05/08 00:32:25;;;;;;;27.70;16.20;;;;;;;;;;5028500;28;20712;-77
2022/05/08 00:34:53;;;;;;;31.40;16.77;;;;;;;;;;5030154;28;20319;-76
2022/05/08 00:37:20;;;;;;;23.63;14.83;;;;;;;;;;5023166;28;20264;-74
2022/05/08 00:39:47;;;;;;;27.17;16.27;;;;;;;;;;5023725;28;20287;-74
2022/05/08 00:42:15;;;;;;;25.23;15.47;;;;;;;;;;5025430;28;20224;-75
2022/05/08 00:44:42;;;;;;;25.13;14.83;;;;;;;;;;5024568;28;20212;-76
2022/05/08 00:47:09;;;;;;;29.20;16.90;;;;;;;;;;5027514;28;20219;-76
2022/05/08 00:49:36;;;;;;;28.17;16.20;;;;;;;;;;5024941;28;20207;-76
2022/05/08 00:52:06;;;;;;;30.93;18.40;;;;;;;;;;5022488;28;20729;-76
2022/05/08 00:54:33;;;;;;;31.30;18.60;;;;;;;;;;5026408;28;20209;-76
2022/05/08 00:57:01;;;;;;;30.37;17.80;;;;;;;;;;5020180;28;20232;-76
2022/05/08 00:59:28;;;;;;;26.83;16.70;;;;;;;;;;5024530;28;20201;-75
2022/05/08 01:01:55;;;;;;;26.27;17.03;;;;;;;;;;5021063;28;20243;-76
2022/05/08 01:04:22;;;;;;;28.93;15.53;;;;;;;;;;5024442;28;20226;-76
2022/05/08 01:06:50;;;;;;;26.73;14.90;;;;;;;;;;5026896;28;20234;-76
2022/05/08 01:09:19;;;;;;;25.57;14.87;;;;;;;;;;5029262;28;20319;-76
2022/05/08 01:11:46;;;;;;;23.17;14.27;;;;;;;;;;5030122;28;20265;-77
2022/05/08 01:14:14;;;;;;;23.20;13.00;;;;;;;;;;5025556;28;20200;-75
2022/05/08 01:16:42;;;;;;;21.57;13.30;;;;;;;;;;5024200;28;20315;-75
2022/05/08 01:19:09;;;;;;;25.43;13.47;;;;;;;;;;5023161;28;20215;-76
2022/05/08 01:21:41;;;;;;;21.80;13.03;;;;;;;;;;5021276;28;20589;-75
2022/05/08 01:24:13;;;;;;;22.70;13.67;;;;;;;;;;5016081;28;20199;-77
2022/05/08 01:26:40;;;;;;;23.33;13.70;;;;;;;;;;5025234;28;20284;-75
2022/05/08 01:29:07;;;;;;;19.83;12.63;;;;;;;;;;5022697;28;20290;-75
2022/05/08 01:31:35;;;;;;;21.73;12.63;;;;;;;;;;5021497;28;20232;-75
2022/05/08 01:34:02;;;;;;;23.10;13.80;;;;;;;;;;5025250;28;20295;-76
2022/05/08 01:36:30;;;;;;;22.17;13.73;;;;;;;;;;5022414;28;20239;-76
2022/05/08 01:38:58;;;;;;;24.67;14.43;;;;;;;;;;5025542;28;20864;-77
2022/05/08 01:41:25;;;;;;;24.07;13.47;;;;;;;;;;5023555;28;20595;-75
2022/05/08 01:43:52;;;;;;;23.00;13.63;;;;;;;;;;5021188;28;20299;-75
2022/05/08 01:46:20;;;;;;;22.83;12.97;;;;;;;;;;5024031;28;20693;-75
2022/05/08 01:48:48;;;;;;;21.77;13.63;;;;;;;;;;5024978;28;20235;-75
2022/05/08 01:51:16;;;;;;;24.43;13.47;;;;;;;;;;5019764;28;20657;-76
2022/05/08 01:53:44;;;;;;;28.30;13.60;;;;;;;;;;5025583;28;20219;-76
2022/05/08 01:56:13;;;;;;;21.73;13.63;;;;;;;;;;5022692;28;20204;-76
2022/05/08 01:58:40;;;;;;;19.87;13.00;;;;;;;;;;5021152;28;20307;-75
2022/05/08 02:01:09;;;;;;;23.10;12.43;;;;;;;;;;5024638;28;20211;-75
2022/05/08 02:03:37;;;;;;;24.87;13.17;;;;;;;;;;5020480;28;20269;-75
2022/05/08 02:06:04;;;;;;;21.63;13.37;;;;;;;;;;5023342;28;20211;-75
2022/05/08 02:08:31;;;;;;;23.63;12.90;;;;;;;;;;5022059;28;20243;-75
2022/05/08 02:10:58;;;;;;;21.30;12.93;;;;;;;;;;5022714;28;20719;-75
2022/05/08 02:13:27;;;;;;;22.07;13.67;;;;;;;;;;5024696;28;20290;-75
2022/05/08 02:15:54;;;;;;;23.87;13.77;;;;;;;;;;5026045;28;20649;-76
2022/05/08 02:18:21;;;;;;;23.73;12.97;;;;;;;;;;5027449;28;20200;-75
2022/05/08 02:20:48;;;;;;;24.10;13.03;;;;;;;;;;5028216;28;20208;-76
2022/05/08 02:23:15;;;;;;;23.13;13.20;;;;;;;;;;5021045;28;20239;-75
2022/05/08 02:25:42;;;;;;;22.40;12.60;;;;;;;;;;5022499;28;20243;-75
2022/05/08 02:28:10;;;;;;;22.60;12.90;;;;;;;;;;5022759;28;20255;-76
2022/05/08 02:30:38;;;;;;;21.93;13.10;;;;;;;;;;5024282;28;20212;-76
2022/05/08 02:33:06;;;;;;;20.40;12.53;;;;;;;;;;5021857;28;20250;-75
2022/05/08 02:35:33;;;;;;;21.07;13.00;;;;;;;;;;5022290;28;20291;-75
2022/05/08 02:38:00;;;;;;;23.80;13.00;;;;;;;;;;5024461;28;20208;-76
2022/05/08 02:40:28;;;;;;;20.37;12.33;;;;;;;;;;5023359;28;20243;-77
2022/05/08 02:42:57;;;;;;;24.40;12.63;;;;;;;;;;5022044;28;20295;-75
2022/05/08 02:45:24;;;;;;;24.70;12.03;;;;;;;;;;5021777;28;20695;-75
2022/05/08 02:47:53;;;;;;;22.43;12.43;;;;;;;;;;5021499;28;20297;-75
2022/05/08 02:50:21;;;;;;;29.27;12.73;;;;;;;;;;5021683;28;20219;-74
2022/05/08 02:52:48;;;;;;;22.43;13.00;;;;;;;;;;5023214;28;20248;-76
2022/05/08 03:00:46;;;;;;;22.93;11.90;;;;;;;;;;5030125;28;20287;-74
2022/05/08 03:03:15;;;;;;;24.90;12.23;;;;;;;;;;5033489;28;20231;-75
2022/05/08 03:05:43;;;;;;;26.17;13.33;;;;;;;;;;5027272;28;20295;-76
2022/05/08 03:08:11;;;;;;;22.90;12.40;;;;;;;;;;5031879;28;20255;-76
2022/05/08 03:13:19;;;;;;;20.43;12.67;;;;;;;;;;5022282;28;20296;-75
2022/05/08 03:15:47;;;;;;;25.20;12.57;;;;;;;;;;5024045;28;20208;-75
2022/05/08 03:18:15;;;;;;;21.03;11.83;;;;;;;;;;5025943;28;20406;-75
2022/05/08 03:20:42;;;;;;;23.97;12.10;;;;;;;;;;5020996;28;20675;-75
2022/05/08 03:23:09;;;;;;;20.07;11.93;;;;;;;;;;5025473;28;20230;-75
2022/05/08 03:25:37;;;;;;;21.90;12.20;;;;;;;;;;5022251;28;20237;-74
2022/05/08 03:28:04;;;;;;;21.77;11.63;;;;;;;;;;5024946;28;20230;-76
2022/05/08 03:30:31;;;;;;;17.37;10.73;;;;;;;;;;5026525;28;20282;-75
2022/05/08 03:32:59;;;;;;;23.53;11.70;;;;;;;;;;5024588;28;20315;-75
2022/05/08 03:35:27;;;;;;;21.33;11.40;;;;;;;;;;5021401;28;20295;-75
2022/05/08 03:37:55;;;;;;;19.33;12.03;;;;;;;;;;5030185;28;20207;-75
2022/05/08 03:40:22;;;;;;;18.17;11.27;;;;;;;;;;5021981;28;20213;-75
2022/05/08 03:42:49;;;;;;;27.60;12.30;;;;;;;;;;5030629;28;20220;-75
2022/05/08 03:45:17;;;;;;;19.50;11.90;;;;;;;;;;5028313;28;20200;-77
2022/05/08 03:47:44;;;;;;;19.73;11.57;;;;;;;;;;5029138;28;20692;-74
2022/05/08 03:50:12;;;;;;;18.33;11.37;;;;;;;;;;5025776;28;20243;-75
2022/05/08 03:52:40;;;;;;;18.87;11.90;;;;;;;;;;5027190;28;20232;-75
2022/05/08 03:55:07;;;;;;;21.53;11.60;;;;;;;;;;5027895;28;20214;-75
2022/05/08 03:57:35;;;;;;;20.93;11.90;;;;;;;;;;5031485;28;20526;-75
2022/05/08 04:00:02;;;;;;;21.33;12.10;;;;;;;;;;5027659;28;20208;-74
2022/05/08 04:02:29;;;;;;;20.77;11.33;;;;;;;;;;5024078;28;20265;-75
2022/05/08 04:04:56;;;;;;;25.00;11.73;;;;;;;;;;5026102;28;20671;-75
2022/05/08 04:07:23;;;;;;;19.40;12.20;;;;;;;;;;5025905;28;20232;-75
2022/05/08 04:09:52;;;;;;;21.30;11.73;;;;;;;;;;5026333;28;20212;-76
2022/05/08 04:12:19;;;;;;;25.63;12.30;;;;;;;;;;5027806;28;20690;-75
2022/05/08 04:14:46;;;;;;;19.77;11.47;;;;;;;;;;5027640;28;20208;-75
2022/05/08 04:17:13;;;;;;;21.07;11.77;;;;;;;;;;5029177;28;20215;-75
2022/05/08 04:19:40;;;;;;;22.00;12.30;;;;;;;;;;5025955;28;20216;-75
2022/05/08 04:24:53;;;;;;;17.57;11.27;;;;;;;;;;5023328;28;20254;-75
2022/05/08 04:27:21;;;;;;;17.93;11.23;;;;;;;;;;5027502;28;20219;-76
2022/05/08 04:29:48;;;;;;;19.43;11.53;;;;;;;;;;5029599;28;20240;-75
2022/05/08 04:32:15;;;;;;;18.03;11.33;;;;;;;;;;5025732;28;20227;-76
2022/05/08 04:34:42;;;;;;;22.13;11.63;;;;;;;;;;5027166;28;20273;-76
2022/05/08 04:37:10;;;;;;;17.40;11.10;;;;;;;;;;5025440;28;20741;-76
2022/05/08 04:39:37;;;;;;;21.40;11.73;;;;;;;;;;5027043;28;20204;-76
2022/05/08 04:42:05;;;;;;;17.80;11.40;;;;;;;;;;5026719;28;20314;-75
2022/05/08 04:44:33;;;;;;;18.77;11.53;;;;;;;;;;5024188;28;20207;-76
2022/05/08 04:47:00;;;;;;;19.60;10.00;;;;;;;;;;5029730;28;20211;-76
2022/05/08 04:49:29;;;;;;;16.90;10.77;;;;;;;;;;5025144;28;20318;-75
2022/05/08 04:51:56;;;;;;;17.77;10.67;;;;;;;;;;5028252;28;20731;-74
2022/05/08 04:54:24;;;;;;;20.03;11.50;;;;;;;;;;5029750;28;20217;-75
2022/05/08 04:56:52;;;;;;;16.57;10.50;;;;;;;;;;5027584;28;20827;-75
2022/05/08 04:59:20;;;;;;;19.30;11.23;;;;;;;;;;5024883;28;20231;-75
2022/05/08 05:01:47;;;;;;;16.50;10.23;;;;;;;;;;5027486;28;20231;-76
2022/05/08 05:04:14;;;;;;;18.93;10.27;;;;;;;;;;5028345;28;20665;-76
2022/05/08 05:06:43;;;;;;;17.83;10.37;;;;;;;;;;5027946;28;20218;-75
2022/05/08 05:09:10;;;;;;;18.23;11.00;;;;;;;;;;5030219;28;20318;-75
2022/05/08 05:11:37;;;;;;;20.70;11.00;;;;;;;;;;5024577;28;20223;-76
2022/05/08 05:14:04;;;;;;;18.83;10.97;;;;;;;;;;5026846;28;20267;-75
2022/05/08 05:16:33;;;;;;;16.87;10.20;;;;;;;;;;5024370;28;20235;-75
2022/05/08 05:19:00;;;;;;;17.80;10.20;;;;;;;;;;5026940;28;20287;-75
2022/05/08 05:21:27;;;;;;;18.37;11.17;;;;;;;;;;5027102;28;20291;-75
2022/05/08 05:23:54;;;;;;;17.93;10.10;;;;;;;;;;5028876;28;20243;-75
2022/05/08 05:26:21;;;;;;;21.60;11.07;;;;;;;;;;5024178;28;20230;-75
2022/05/08 05:28:49;;;;;;;17.63;11.10;;;;;;;;;;5027144;28;20234;-76
2022/05/08 05:31:16;;;;;;;19.63;11.00;;;;;;;;;;5026240;28;20212;-75
2022/05/08 05:33:46;;;;;;;17.23;10.43;;;;;;;;;;5027747;28;20291;-76
2022/05/08 05:36:13;;;;;;;17.37;10.37;;;;;;;;;;5026613;28;20206;-76
2022/05/08 05:38:40;;;;;;;17.97;10.20;;;;;;;;;;5026904;28;20203;-76
2022/05/08 05:41:07;;;;;;;18.03;10.87;;;;;;;;;;5024946;28;20216;-76
2022/05/08 05:43:35;;;;;;;15.57;9.73;;;;;;;;;;5021613;28;20790;-76
2022/05/08 05:48:44;;;;;;;17.47;10.23;;;;;;;;;;5007098;28;20236;-76
2022/05/08 05:51:11;;;;;;;14.90;10.03;;;;;;;;;;5026214;28;20215;-76
2022/05/08 05:53:38;;;;;;;19.17;10.47;;;;;;;;;;5024356;28;20251;-75
2022/05/08 05:56:06;;;;;;;16.50;9.80;;;;;;;;;;5023555;28;20208;-75
2022/05/08 05:58:33;;;;;;;15.87;9.77;;;;;;;;;;5033051;28;20271;-75
2022/05/08 06:01:00;;;;;;;19.27;10.13;;;;;;;;;;5021576;28;20295;-76
2022/05/08 06:03:27;;;;;;;18.00;10.53;;;;;;;;;;5025771;28;20718;-75
2022/05/08 06:05:56;;;;;;;15.17;10.10;;;;;;;;;;5023063;28;20215;-76
2022/05/08 06:08:23;;;;;;;15.17;9.70;;;;;;;;;;5024008;28;20249;-76
2022/05/08 06:10:50;;;;;;;14.73;10.17;;;;;;;;;;5026403;28;20211;-76
2022/05/08 06:13:18;;;;;;;15.20;9.63;;;;;;;;;;5027642;28;20301;-76
2022/05/08 06:15:45;;;;;;;16.37;9.73;;;;;;;;;;5031122;28;20219;-76
2022/05/08 06:18:12;;;;;;;13.70;9.50;;;;;;;;;;5026775;28;20223;-76
2022/05/08 06:20:39;;;;;;;14.23;8.57;;;;;;;;;;5028224;28;20212;-76
2022/05/08 06:23:08;;;;;;;14.43;8.13;;;;;;;;;;5027470;28;20235;-76
2022/05/08 06:25:35;;;;;;;12.70;8.37;;;;;;;;;;5026231;28;20326;-76
2022/05/08 06:28:02;;;;;;;10.10;7.43;;;;;;;;;;5033587;28;20220;-77
2022/05/08 06:30:29;;;;;;;9.27;6.57;;;;;;;;;;5031142;28;20214;-76
2022/05/08 06:32:57;;;;;;;10.23;7.10;;;;;;;;;;5031731;28;20220;-76
2022/05/08 06:35:24;;;;;;;9.63;7.03;;;;;;;;;;5027725;28;20298;-76
2022/05/08 06:37:51;;;;;;;12.23;6.53;;;;;;;;;;5030799;28;20239;-75
2022/05/08 06:40:21;;;;;;;8.73;6.30;;;;;;;;;;5030427;28;20207;-76
2022/05/08 06:42:48;;;;;;;9.00;5.93;;;;;;;;;;5030553;28;20231;-76
2022/05/08 06:45:17;;;;;;;8.47;5.90;;;;;;;;;;5032888;28;20280;-76
2022/05/08 06:47:45;;;;;;;7.87;6.13;;;;;;;;;;5031803;28;20222;-75
2022/05/08 06:50:12;;;;;;;9.17;6.13;;;;;;;;;;5032647;28;20231;-76
2022/05/08 06:52:39;;;;;;;10.47;6.40;;;;;;;;;;5033920;28;20254;-75
2022/05/08 06:55:07;;;;;;;10.57;6.90;;;;;;;;;;5033822;28;20211;-75
2022/05/08 06:57:36;;;;;;;12.00;7.37;;;;;;;;;;5031650;28;20276;-76
2022/05/08 07:02:48;;;;;;;13.00;8.20;;;;;;;;;;5029080;28;20691;-77
2022/05/08 07:05:15;;;;;;;11.53;7.63;;;;;;;;;;5033440;28;20204;-76
2022/05/08 07:07:42;;;;;;;12.90;8.20;;;;;;;;;;5028759;28;20210;-77
2022/05/08 07:10:10;;;;;;;14.20;8.37;;;;;;;;;;5031911;28;20227;-76
2022/05/08 07:12:39;;;;;;;13.40;8.30;;;;;;;;;;5028555;28;20295;-76
2022/05/08 07:15:06;;;;;;;16.27;8.90;;;;;;;;;;5032976;28;20208;-76
2022/05/08 07:17:34;;;;;;;15.87;9.03;;;;;;;;;;5034821;28;20204;-76
2022/05/08 07:20:03;;;;;;;15.80;8.33;;;;;;;;;;5029219;28;20299;-75
2022/05/08 07:22:32;;;;;;;15.43;8.57;;;;;;;;;;5030770;28;20801;-75
2022/05/08 07:25:00;;;;;;;14.07;7.90;;;;;;;;;;5029878;28;20294;-76
2022/05/08 07:27:29;;;;;;;12.67;7.70;;;;;;;;;;5030420;28;20235;-76
2022/05/08 07:29:58;;;;;;;13.30;7.80;;;;;;;;;;5027722;28;20231;-76
2022/05/08 07:32:28;;;;;;;15.23;7.60;;;;;;;;;;5031811;28;20281;-76
2022/05/08 07:37:49;;;;;;;12.37;7.90;;;;;;;;;;5031019;28;20243;-76
2022/05/08 07:40:16;;;;;;;12.13;7.50;;;;;;;;;;5022716;28;20201;-76
2022/05/08 07:42:43;;;;;;;14.33;7.60;;;;;;;;;;5022452;28;20288;-76
2022/05/08 07:45:13;;;;;;;16.97;7.67;;;;;;;;;;5028068;28;20668;-76
2022/05/08 07:47:41;;;;;;;11.47;7.20;;;;;;;;;;5029432;28;20580;-76
2022/05/08 07:50:09;;;;;;;12.00;7.93;;;;;;;;;;5033303;28;20259;-76
2022/05/08 07:52:39;;;;;;;12.87;7.17;;;;;;;;;;5030106;28;20220;-75
2022/05/08 07:55:07;;;;;;;8.77;6.17;;;;;;;;;;5028398;28;20202;-75
2022/05/08 07:57:35;;;;;;;13.10;6.83;;;;;;;;;;5025494;28;20210;-75
2022/05/08 08:00:03;;;;;;;11.10;6.60;;;;;;;;;;5027858;28;20201;-75
2022/05/08 08:02:32;;;;;;;11.87;7.33;;;;;;;;;;5028214;28;20691;-76
2022/05/08 08:04:59;;;;;;;11.17;7.03;;;;;;;;;;5028728;28;20204;-76
2022/05/08 08:07:26;;;;;;;10.83;6.43;;;;;;;;;;5023320;28;20234;-76
2022/05/08 08:09:53;;;;;;;10.37;7.10;;;;;;;;;;5028848;28;20249;-76
2022/05/08 08:12:21;;;;;;;16.20;7.07;;;;;;;;;;5025934;28;20262;-75
2022/05/08 08:14:48;;;;;;;13.43;7.27;;;;;;;;;;5025239;28;20206;-76
2022/05/08 08:17:15;;;;;;;11.17;6.83;;;;;;;;;;5026919;28;20726;-76
2022/05/08 08:19:44;;;;;;;9.77;6.53;;;;;;;;;;5027829;28;20201;-76
2022/05/08 08:22:11;;;;;;;12.90;6.57;;;;;;;;;;5025198;28;20331;-76
2022/05/08 08:24:38;;;;;;;12.33;6.80;;;;;;;;;;5026437;28;20210;-76
2022/05/08 08:27:07;;;;;;;12.53;7.17;;;;;;;;;;5021814;28;20264;-75
2022/05/08 08:29:34;;;;;;;9.87;6.47;;;;;;;;;;5023635;28;20239;-76
2022/05/08 08:32:01;;;;;;;13.90;6.90;;;;;;;;;;5028269;28;20324;-76
2022/05/08 08:34:28;;;;;;;12.63;7.00;;;;;;;;;;5023560;28;20574;-76
2022/05/08 08:36:57;;;;;;;12.93;6.60;;;;;;;;;;5024259;28;20212;-75
2022/05/08 08:39:24;;;;;;;13.60;7.23;;;;;;;;;;5026715;28;20207;-76
2022/05/08 08:41:54;;;;;;;12.23;6.73;;;;;;;;;;5021015;28;20268;-75
2022/05/08 08:49:55;;;;;;;14.10;6.93;;;;;;;;;;5034500;28;20296;-76
2022/05/08 08:52:24;;;;;;;14.30;6.80;;;;;;;;;;5024177;28;20228;-75
2022/05/08 08:54:51;;;;;;;12.57;6.70;;;;;;;;;;5027990;28;20218;-75
2022/05/08 08:57:19;;;;;;;11.67;7.30;;;;;;;;;;5023418;28;20273;-76
2022/05/08 08:59:46;;;;;;;12.40;6.90;;;;;;;;;;5023848;28;20881;-75
2022/05/08 09:02:17;;;;;;;10.33;6.90;;;;;;;;;;5026612;28;20232;-75
2022/05/08 09:04:45;;;;;;;11.47;6.77;;;;;;;;;;5027638;28;20211;-76
2022/05/08 09:07:31;;;;;;;11.67;6.67;;;;;;;;;;5021656;28;20200;-75
2022/05/08 09:10:08;;;;;;;11.60;6.57;;;;;;;;;;5024034;28;20254;-75
2022/05/08 09:12:35;;;;;;;11.80;7.27;;;;;;;;;;5026492;28;20254;-76
2022/05/08 09:15:17;;;;;;;13.07;6.47;;;;;;;;;;5023256;28;20200;-75
2022/05/08 09:17:45;;;;;;;10.13;6.13;;;;;;;;;;5021869;28;20466;-75
2022/05/08 09:20:27;;;;;;;12.07;5.90;;;;;;;;;;5022287;28;20196;-76
2022/05/08 09:23:08;;;;;;;11.30;6.67;;;;;;;;;;5021258;28;20235;-75
2022/05/08 09:25:50;;;;;;;16.37;6.70;;;;;;;;;;5018625;28;20211;-75
2022/05/08 09:28:19;;;;;;;12.37;7.07;;;;;;;;;;5025056;28;20652;-76
2022/05/08 09:30:56;;;;;;;9.33;6.47;;;;;;;;;;5020894;28;20228;-76
2022/05/08 09:33:27;;;;;;;9.70;5.70;;;;;;;;;;5024428;28;20235;-74
2022/05/08 09:35:57;;;;;;;10.00;6.20;;;;;;;;;;5024063;28;20243;-76
2022/05/08 09:38:40;;;;;;;11.10;6.43;;;;;;;;;;5027267;28;20208;-74
2022/05/08 09:41:09;;;;;;;10.67;6.77;;;;;;;;;;5022503;28;20203;-74
2022/05/08 09:43:36;;;;;;;13.90;6.00;;;;;;;;;;5020911;28;20231;-76
2022/05/08 09:46:04;;;;;;;9.23;5.50;;;;;;;;;;5023994;28;20208;-74
2022/05/08 09:48:35;;;;;;;9.73;5.53;;;;;;;;;;5022512;28;20267;-74
2022/05/08 09:51:04;;;;;;;12.43;5.30;;;;;;;;;;5021411;28;20294;-74
2022/05/08 09:53:32;;;;;;;14.57;5.90;;;;;;;;;;5021663;28;20223;-75
2022/05/08 09:56:00;;;;;;;9.90;5.50;;;;;;;;;;5020230;28;20287;-77
2022/05/08 09:58:29;;;;;;;10.37;5.30;;;;;;;;;;5021607;28;20207;-76
2022/05/08 10:00:57;;;;;;;11.07;5.57;;;;;;;;;;5025185;28;20212;-76
2022/05/08 10:03:24;;;;;;;9.37;5.77;;;;;;;;;;5025215;28;20259;-77
2022/05/08 10:06:04;;;;;;;10.50;5.90;;;;;;;;;;5021564;28;20214;-77
2022/05/08 10:08:32;;;;;;;7.97;5.37;;;;;;;;;;5021070;28;20663;-76
2022/05/08 10:14:00;;;;;;;9.53;5.83;;;;;;;;;;4977417;28;20198;-75
2022/05/08 10:17:01;;;;;;;11.27;5.00;;;;;;;;;;5012150;28;20228;-77
2022/05/08 10:19:48;;;;;;;6.37;4.57;;;;;;;;;;5017739;28;20207;-75
2022/05/08 10:22:15;;;;;;;7.93;5.30;;;;;;;;;;5024157;28;20287;-76
2022/05/08 10:24:58;;;;;;;7.57;5.03;;;;;;;;;;5022515;28;20370;-76
2022/05/08 10:27:26;;;;;;;9.43;5.17;;;;;;;;;;5021323;28;20250;-75
2022/05/08 10:30:12;;;;;;;9.77;5.43;;;;;;;;;;5022398;28;20234;-76
2022/05/08 10:32:52;;;;;;;12.27;5.10;;;;;;;;;;5020460;28;20230;-76
2022/05/08 10:35:21;;;;;;;8.53;4.83;;;;;;;;;;5019275;28;20208;-76
2022/05/08 10:37:50;;;;;;;12.57;5.40;;;;;;;;;;5019469;28;20262;-75
2022/05/08 10:40:32;;;;;;;8.27;5.03;;;;;;;;;;5024554;28;20211;-76
2022/05/08 10:43:01;;;;;;;9.17;4.53;;;;;;;;;;5022100;28;20248;-77
2022/05/08 10:45:43;;;;;;;11.73;5.80;;;;;;;;;;5022894;28;20201;-76
2022/05/08 10:48:15;;;;;;;6.63;4.57;;;;;;;;;;5023331;28;20208;-76
2022/05/08 10:50:44;;;;;;;8.83;4.90;;;;;;;;;;5027577;28;20306;-74
2022/05/08 10:53:27;;;;;;;7.60;4.33;;;;;;;;;;5023179;28;20551;-77
2022/05/08 10:55:59;;;;;;;12.27;5.37;;;;;;;;;;5022289;28;20548;-76
2022/05/08 10:58:26;;;;;;;7.20;4.53;;;;;;;;;;5023220;28;20226;-76
2022/05/08 11:00:56;;;;;;;7.93;4.60;;;;;;;;;;5019857;28;20199;-75
2022/05/08 11:03:26;;;;;;;8.90;4.30;;;;;;;;;;5022121;28;20286;-76
2022/05/08 11:05:53;;;;;;;7.70;4.60;;;;;;;;;;5020199;28;20208;-77
2022/05/08 11:08:25;;;;;;;8.83;4.47;;;;;;;;;;5020230;28;20279;-76
2022/05/08 11:10:59;;;;;;;8.40;4.43;;;;;;;;;;5020867;28;20259;-77
2022/05/08 11:13:41;;;;;;;10.10;4.87;;;;;;;;;;5024322;28;20323;-76
2022/05/08 11:16:09;;;;;;;7.87;4.90;;;;;;;;;;5024936;28;20203;-75
2022/05/08 11:18:37;;;;;;;6.93;4.47;;;;;;;;;;5030883;28;20208;-75
2022/05/08 11:21:08;;;;;;;8.60;4.70;;;;;;;;;;5024281;28;20212;-77
2022/05/08 11:23:36;;;;;;;9.17;5.10;;;;;;;;;;5032104;28;20246;-75
2022/05/08 11:26:05;;;;;;;11.20;5.00;;;;;;;;;;5033289;28;20276;-76
2022/05/08 11:28:33;;;;;;;8.40;4.43;;;;;;;;;;5023334;28;20652;-76
2022/05/08 11:31:01;;;;;;;11.57;5.00;;;;;;;;;;5020086;28;20251;-76
2022/05/08 11:36:25;;;;;;;8.10;4.20;;;;;;;;;;5019215;28;20202;-77
2022/05/08 11:38:53;;;;;;;11.77;3.97;;;;;;;;;;5018329;28;20212;-78
2022/05/08 11:41:21;;;;;;;9.00;4.40;;;;;;;;;;5017565;28;20294;-77
2022/05/08 11:43:49;;;;;;;10.33;4.50;;;;;;;;;;5019779;28;20201;-75
2022/05/08 11:46:17;;;;;;;6.97;4.03;;;;;;;;;;5020072;28;20204;-76
2022/05/08 11:48:47;;;;;;;9.40;4.57;;;;;;;;;;5022699;28;20205;-76
2022/05/08 11:51:18;;;;;;;9.27;4.40;;;;;;;;;;5018782;28;21961;-77
2022/05/08 11:53:46;;;;;;;9.90;4.10;;;;;;;;;;5024233;28;20836;-76
2022/05/08 11:56:26;;;;;;;9.33;4.10;;;;;;;;;;5020000;28;20207;-77
2022/05/08 11:58:53;;;;;;;10.40;3.97;;;;;;;;;;5020839;28;20204;-75
2022/05/08 12:01:24;;;;;;;8.47;4.40;;;;;;;;;;5026199;28;20278;-78
2022/05/08 12:03:53;;;;;;;7.23;4.47;;;;;;;;;;5021720;28;20212;-77
2022/05/08 12:06:21;;;;;;;6.87;4.40;;;;;;;;;;5021603;28;20204;-76
2022/05/08 12:08:48;;;;;;;9.97;4.50;;;;;;;;;;5021553;28;20200;-76
2022/05/08 12:11:28;;;;;;;7.63;3.97;;;;;;;;;;5024872;28;20221;-77
2022/05/08 12:14:05;;;;;;;9.00;3.77;;;;;;;;;;5026519;28;20299;-77
2022/05/08 12:16:33;;;;;;;6.60;3.90;;;;;;;;;;5020758;28;20235;-75
2022/05/08 12:19:12;;;;;;;8.97;4.50;;;;;;;;;;5024424;28;20586;-76
2022/05/08 12:21:39;;;;;;;7.30;4.00;;;;;;;;;;5021390;28;20203;-77
2022/05/08 12:24:10;;;;;;;7.73;3.60;;;;;;;;;;5020615;28;20203;-76
2022/05/08 12:26:37;;;;;;;7.50;4.10;;;;;;;;;;5021428;28;20672;-77
2022/05/08 12:29:07;;;;;;;5.97;4.00;;;;;;;;;;5027727;28;20613;-76
2022/05/08 12:31:34;;;;;;;8.63;4.00;;;;;;;;;;5020730;28;20426;-75
2022/05/08 12:34:02;;;;;;;12.77;3.77;;;;;;;;;;5018570;28;20208;-76
2022/05/08 12:36:30;;;;;;;7.83;3.97;;;;;;;;;;5022454;28;20210;-75
2022/05/08 12:38:57;;;;;;;9.73;3.90;;;;;;;;;;5022084;28;20208;-78
2022/05/08 12:41:25;;;;;;;7.47;3.60;;;;;;;;;;5020737;28;20207;-77
2022/05/08 12:43:52;;;;;;;8.20;4.37;;;;;;;;;;5020004;28;20796;-77
2022/05/08 12:46:19;;;;;;;17.80;9.73;;;;;;;;;;5020549;28;20253;-76
2022/05/08 12:48:46;;;;;;;6.73;3.80;;;;;;;;;;5019424;28;20210;-77
2022/05/08 12:51:13;;;;;;;11.07;5.17;;;;;;;;;;5021670;28;20219;-77
2022/05/08 12:53:42;;;;;;;7.07;4.50;;;;;;;;;;5021746;28;20314;-77
2022/05/08 12:56:09;;;;;;;5.83;3.17;;;;;;;;;;5021895;28;20330;-77
2022/05/08 13:01:22;;;;;;;8.07;3.20;;;;;;;;;;5016753;28;20207;-74
2022/05/08 13:03:49;;;;;;;6.83;3.40;;;;;;;;;;5021449;28;20212;-77
2022/05/08 13:06:16;;;;;;;8.97;4.80;;;;;;;;;;5024783;28;20739;-76
2022/05/08 13:08:45;;;;;;;7.90;3.17;;;;;;;;;;5022955;28;20271;-76
2022/05/08 13:11:12;;;;;;;9.17;3.10;;;;;;;;;;5021935;28;20234;-76
2022/05/08 13:13:39;;;;;;;7.47;3.00;;;;;;;;;;5025659;28;20263;-77
2022/05/08 13:16:11;;;;;;;9.73;3.03;;;;;;;;;;5024111;28;20211;-77
2022/05/08 13:18:38;;;;;;;6.67;3.00;;;;;;;;;;5024864;28;20208;-77
2022/05/08 13:21:07;;;;;;;5.63;3.40;;;;;;;;;;5022100;28;20219;-76
2022/05/08 13:23:34;;;;;;;4.90;2.93;;;;;;;;;;5026466;28;20234;-75
2022/05/08 13:26:03;;;;;;;6.33;2.93;;;;;;;;;;5022507;28;20294;-77
2022/05/08 13:28:32;;;;;;;6.00;2.90;;;;;;;;;;5022435;28;20231;-77
2022/05/08 13:31:00;;;;;;;5.40;2.67;;;;;;;;;;5024482;28;20223;-77
2022/05/08 13:33:27;;;;;;;6.03;2.53;;;;;;;;;;5024973;28;20234;-77
2022/05/08 13:35:54;;;;;;;7.33;2.50;;;;;;;;;;5020128;28;20211;-77
2022/05/08 13:38:21;;;;;;;4.80;2.80;;;;;;;;;;5022401;28;20200;-77
2022/05/08 13:40:56;;;;;;;5.73;2.63;;;;;;;;;;5019477;28;20192;-76
2022/05/08 13:43:24;;;;;;;5.23;2.73;;;;;;;;;;5023111;28;20270;-77
2022/05/08 13:45:52;;;;;;;10.23;3.30;;;;;;;;;;5022112;28;20204;-77
2022/05/08 13:48:20;;;;;;;10.93;3.10;;;;;;;;;;5023107;28;20235;-78
2022/05/08 13:50:48;;;;;;;5.10;2.60;;;;;;;;;;5024354;28;20243;-78
2022/05/08 13:53:16;;;;;;;6.17;3.00;;;;;;;;;;5019216;28;20223;-77
2022/05/08 13:55:46;;;;;;;6.03;2.87;;;;;;;;;;5019552;28;20207;-77
2022/05/08 13:58:13;;;;;;;6.50;2.70;;;;;;;;;;5026654;28;20204;-77
2022/05/08 14:00:46;;;;;;;6.40;2.87;;;;;;;;;;5019877;28;20206;-77
2022/05/08 14:03:13;;;;;;;3.63;2.27;;;;;;;;;;5026031;28;20230;-77
2022/05/08 14:05:41;;;;;;;6.10;2.50;;;;;;;;;;5030467;28;20203;-77
2022/05/08 14:08:08;;;;;;;9.20;2.50;;;;;;;;;;5025682;28;20211;-77
2022/05/08 14:10:36;;;;;;;8.27;2.37;;;;;;;;;;5028070;28;20845;-77
2022/05/08 14:13:03;;;;;;;10.40;2.67;;;;;;;;;;5023443;28;20662;-77
2022/05/08 14:15:31;;;;;;;7.07;2.60;;;;;;;;;;5018323;28;20196;-78
2022/05/08 14:17:59;;;;;;;4.20;2.40;;;;;;;;;;5023006;28;20269;-77
2022/05/08 14:20:27;;;;;;;10.40;2.47;;;;;;;;;;5017971;28;20211;-77
2022/05/08 14:22:54;;;;;;;7.60;2.43;;;;;;;;;;5018746;28;20697;-78
2022/05/08 14:25:22;;;;;;;7.20;2.47;;;;;;;;;;5018741;28;20212;-77
2022/05/08 14:27:49;;;;;;;7.63;2.47;;;;;;;;;;5021951;28;20745;-78
2022/05/08 14:30:17;;;;;;;7.33;2.67;;;;;;;;;;5019686;28;20199;-78
2022/05/08 14:38:25;;;;;;;5.93;2.20;;;;;;;;;;5019191;28;20690;-78
2022/05/08 14:40:55;;;;;;;4.93;2.60;;;;;;;;;;5017394;28;20207;-77
2022/05/08 14:43:22;;;;;;;4.20;2.10;;;;;;;;;;5021930;28;20219;-78
2022/05/08 14:45:49;;;;;;;5.60;2.53;;;;;;;;;;5022396;28;20206;-77
2022/05/08 14:48:17;;;;;;;6.53;2.30;;;;;;;;;;5017958;28;20662;-77
2022/05/08 14:50:47;;;;;;;8.13;2.63;;;;;;;;;;5017210;28;20228;-78
2022/05/08 14:53:15;;;;;;;6.03;2.33;;;;;;;;;;5020218;28;20224;-78
2022/05/08 14:55:45;;;;;;;5.00;2.20;;;;;;;;;;5020055;28;20227;-78
2022/05/08 14:58:15;;;;;;;3.97;2.13;;;;;;;;;;5019603;28;20204;-77
2022/05/08 15:00:42;;;;;;;6.93;2.33;;;;;;;;;;5019043;28;20202;-77
2022/05/08 15:03:09;;;;;;;4.13;2.23;;;;;;;;;;5021081;28;20227;-77
2022/05/08 15:05:37;;;;;;;3.17;1.90;;;;;;;;;;5019559;28;20204;-77
2022/05/08 15:08:06;;;;;;;4.40;1.93;;;;;;;;;;5018855;28;20214;-78
2022/05/08 15:10:33;;;;;;;4.17;2.10;;;;;;;;;;5018308;28;20204;-77
2022/05/08 15:13:01;;;;;;;5.00;1.87;;;;;;;;;;5020037;28;20800;-77
2022/05/08 15:15:28;;;;;;;6.73;1.93;;;;;;;;;;5018690;28;20204;-77